Time;durP1;ratioP1;P1;durP2;ratioP2;P2;SDS_P1;SDS_P2;PMS_P1;PMS_P2;Temp;Humidity;BMP_temperature;BMP_pressure;BME280_temperature;BME280_humidity;BME280_pressure;Samples;Min_cycle;Max_cycle;Signal;HPM_P1;HPM_P2
2022/05/24 00:01:24;;;;;;;7.18;3.53;;;22.80;49.30;;;;;;4956268;29;20085;-74
2022/05/24 00:03:49;;;;;;;16.67;3.60;;;22.80;49.40;;;;;;4956322;28;20082;-73
2022/05/24 00:06:16;;;;;;;10.45;3.33;;;22.70;49.30;;;;;;4956165;29;20393;-72
2022/05/24 00:08:42;;;;;;;11.13;4.25;;;22.80;49.50;;;;;;4956158;28;20046;-74
2022/05/24 00:11:08;;;;;;;9.23;3.63;;;22.70;49.60;;;;;;4956121;29;20499;-73
2022/05/24 00:13:34;;;;;;;6.72;3.63;;;22.70;49.40;;;;;;4956074;28;20032;-75
2022/05/24 00:16:00;;;;;;;12.45;3.83;;;22.80;49.60;;;;;;4955962;29;20077;-73
2022/05/24 00:18:28;;;;;;;7.43;3.83;;;22.70;49.60;;;;;;4956202;28;20041;-73
2022/05/24 00:21:00;;;;;;;7.82;3.83;;;22.80;49.70;;;;;;4955907;28;20381;-72
2022/05/24 00:23:27;;;;;;;11.50;3.75;;;22.80;49.30;;;;;;4954701;29;20039;-73
2022/05/24 00:25:55;;;;;;;11.35;3.60;;;22.70;50.00;;;;;;4955911;28;20038;-71
2022/05/24 00:28:24;;;;;;;10.10;4.28;;;22.70;50.00;;;;;;4956028;28;20034;-74
2022/05/24 00:30:50;;;;;;;8.52;3.90;;;22.60;50.00;;;;;;4955662;28;20575;-74
2022/05/24 00:33:17;;;;;;;10.38;3.65;;;22.60;50.00;;;;;;4955812;28;20083;-70
2022/05/24 00:35:43;;;;;;;7.05;3.35;;;22.60;50.20;;;;;;4955790;28;20110;-72
2022/05/24 00:38:13;;;;;;;9.32;3.72;;;22.50;50.20;;;;;;4955501;28;20024;-71
2022/05/24 00:40:57;;;;;;;10.25;3.78;;;22.50;50.30;;;;;;4955754;28;20027;-75
2022/05/24 00:43:35;;;;;;;10.02;3.58;;;22.50;51.00;;;;;;4955702;28;20043;-73
2022/05/24 00:46:08;;;;;;;6.65;3.50;;;22.50;51.00;;;;;;4955810;29;20035;-74
2022/05/24 00:48:39;;;;;;;13.20;3.53;;;22.50;52.10;;;;;;4954318;29;20035;-72
2022/05/24 00:51:08;;;;;;;5.38;2.75;;;22.60;53.00;;;;;;4955221;28;20054;-74
2022/05/24 00:53:38;;;;;;;6.80;3.08;;;22.60;53.50;;;;;;4955550;28;20559;-72
2022/05/24 00:56:31;;;;;;;10.20;3.30;;;22.50;53.80;;;;;;4956093;28;20031;-73
2022/05/24 00:59:07;;;;;;;9.32;3.85;;;22.40;54.20;;;;;;4957661;28;20031;-73
2022/05/24 01:01:40;;;;;;;8.82;2.95;;;22.40;54.20;;;;;;4955301;28;20438;-72
2022/05/24 01:04:11;;;;;;;9.77;3.30;;;22.40;54.50;;;;;;4955465;28;20035;-74
2022/05/24 01:06:38;;;;;;;7.45;2.72;;;22.30;55.00;;;;;;4955650;28;20095;-72
2022/05/24 01:09:12;;;;;;;7.82;3.33;;;22.30;55.30;;;;;;4955343;28;20032;-74
2022/05/24 01:11:42;;;;;;;9.52;3.08;;;22.20;55.40;;;;;;4955104;28;20082;-72
2022/05/24 01:14:11;;;;;;;7.18;3.35;;;22.20;55.70;;;;;;4954711;28;20047;-73
2022/05/24 01:16:37;;;;;;;5.72;2.78;;;22.20;55.50;;;;;;4955199;29;20027;-73
2022/05/24 01:19:07;;;;;;;12.45;3.78;;;22.20;55.70;;;;;;4953446;28;20049;-72
2022/05/24 01:21:33;;;;;;;7.15;3.30;;;22.10;55.90;;;;;;4955211;28;20028;-72
2022/05/24 01:24:24;;;;;;;8.05;3.88;;;22.10;55.30;;;;;;4955077;28;20042;-74
2022/05/24 01:26:56;;;;;;;8.30;4.05;;;22.20;55.20;;;;;;4955009;28;20536;-73
2022/05/24 01:29:25;;;;;;;10.38;3.90;;;22.20;55.00;;;;;;4954952;29;20019;-72
2022/05/24 01:37:22;;;;;;;8.20;3.17;;;22.10;55.50;;;;;;4954598;29;20046;-72
2022/05/24 01:39:52;;;;;;;13.63;4.03;;;22.00;55.90;;;;;;4954344;29;20023;-74
2022/05/24 01:42:55;;;;;;;7.20;3.63;;;22.10;56.00;;;;;;4954562;29;20392;-73
2022/05/24 01:45:34;;;;;;;8.13;4.00;;;22.10;55.80;;;;;;4954904;29;20421;-75
2022/05/24 01:48:11;;;;;;;7.30;3.53;;;22.00;56.30;;;;;;4954774;29;20023;-73
2022/05/24 01:50:38;;;;;;;9.13;4.10;;;22.00;57.10;;;;;;4954386;28;20133;-73
2022/05/24 01:53:12;;;;;;;12.05;3.95;;;21.90;56.50;;;;;;4953499;29;20033;-73
2022/05/24 01:55:43;;;;;;;11.43;4.57;;;22.00;56.60;;;;;;4954705;29;20031;-72
2022/05/24 01:58:13;;;;;;;11.45;4.43;;;21.90;56.40;;;;;;4954588;29;20110;-72
2022/05/24 02:00:44;;;;;;;8.32;4.00;;;21.90;56.60;;;;;;4954591;28;20031;-74
2022/05/24 02:03:09;;;;;;;9.15;4.13;;;21.90;56.70;;;;;;4954368;28;20046;-72
2022/05/24 02:05:38;;;;;;;12.32;4.00;;;21.80;56.70;;;;;;4954602;28;20441;-74
2022/05/24 02:08:08;;;;;;;11.70;3.88;;;21.90;57.20;;;;;;4954636;28;20023;-75
2022/05/24 02:10:49;;;;;;;9.75;3.80;;;21.90;56.60;;;;;;4954503;28;20019;-73
2022/05/24 02:13:22;;;;;;;12.57;4.07;;;21.90;56.80;;;;;;4955118;28;20023;-76
2022/05/24 02:15:49;;;;;;;10.13;3.75;;;22.00;57.00;;;;;;4954947;28;20027;-73
2022/05/24 02:18:19;;;;;;;11.13;4.60;;;22.00;56.90;;;;;;4954787;28;20082;-74
2022/05/24 02:20:46;;;;;;;13.30;4.30;;;22.00;57.10;;;;;;4954568;29;20477;-73
2022/05/24 02:23:15;;;;;;;11.10;4.10;;;21.90;57.30;;;;;;4954322;28;20122;-70
2022/05/24 02:25:57;;;;;;;10.80;3.83;;;21.80;57.30;;;;;;4954602;28;20019;-74
2022/05/24 02:28:30;;;;;;;9.65;4.22;;;21.80;57.70;;;;;;4958136;28;20114;-72
2022/05/24 02:30:59;;;;;;;16.15;4.57;;;21.80;58.00;;;;;;4958241;28;20377;-71
2022/05/24 02:33:25;;;;;;;13.32;4.53;;;21.80;57.90;;;;;;4958123;28;20038;-70
2022/05/24 02:35:51;;;;;;;8.40;3.72;;;21.70;58.00;;;;;;4956908;29;20028;-74
2022/05/24 02:38:17;;;;;;;9.93;3.97;;;21.70;58.30;;;;;;4956694;29;20126;-74
2022/05/24 02:43:29;;;;;;;8.27;3.90;;;21.70;58.50;;;;;;4957742;29;20135;-74
2022/05/24 02:45:55;;;;;;;11.40;4.70;;;21.70;58.70;;;;;;4957873;29;20098;-71
2022/05/24 02:48:21;;;;;;;11.93;4.18;;;21.80;59.20;;;;;;4957862;28;20031;-75
2022/05/24 02:50:47;;;;;;;8.57;4.03;;;21.70;58.70;;;;;;4957656;28;20054;-75
2022/05/24 02:53:12;;;;;;;9.23;3.63;;;21.60;59.10;;;;;;4957550;28;20082;-73
2022/05/24 02:55:38;;;;;;;10.30;4.05;;;21.60;59.20;;;;;;4958291;29;20027;-73
2022/05/24 02:58:04;;;;;;;6.85;3.67;;;21.50;59.40;;;;;;4957759;29;20020;-72
2022/05/24 03:00:30;;;;;;;8.93;3.80;;;21.60;59.20;;;;;;4958218;28;20083;-73
2022/05/24 03:02:56;;;;;;;12.10;4.20;;;21.50;59.40;;;;;;4957483;28;20035;-72
2022/05/24 03:05:23;;;;;;;10.48;3.42;;;21.50;59.50;;;;;;4957286;28;20030;-73
2022/05/24 03:10:34;;;;;;;9.77;3.95;;;21.50;59.50;;;;;;4957151;29;20049;-74
2022/05/24 03:15:46;;;;;;;10.13;3.97;;;21.20;59.70;;;;;;4957458;29;20089;-73
2022/05/24 03:18:14;;;;;;;7.72;4.15;;;21.20;59.70;;;;;;4957289;28;20376;-74
2022/05/24 03:20:41;;;;;;;12.38;4.38;;;21.20;59.60;;;;;;4957057;28;20026;-73
2022/05/24 03:23:07;;;;;;;8.88;4.10;;;21.20;59.50;;;;;;4957017;28;20138;-73
2022/05/24 03:25:34;;;;;;;11.93;4.10;;;21.20;59.50;;;;;;4957317;28;20027;-71
2022/05/24 03:28:01;;;;;;;10.13;4.68;;;21.30;59.60;;;;;;4957528;28;20027;-72
2022/05/24 03:30:27;;;;;;;10.13;4.18;;;21.30;59.60;;;;;;4958638;29;20082;-71
2022/05/24 03:32:54;;;;;;;11.07;3.85;;;21.20;59.60;;;;;;4957477;29;20045;-71
2022/05/24 03:35:20;;;;;;;9.70;4.10;;;21.20;59.70;;;;;;4956637;28;20066;-72
2022/05/24 03:37:47;;;;;;;7.90;3.63;;;21.20;59.70;;;;;;4956320;28;20078;-74
2022/05/24 03:40:12;;;;;;;13.57;4.05;;;21.10;59.60;;;;;;4956518;29;20437;-73
2022/05/24 03:42:39;;;;;;;12.40;4.20;;;21.10;59.80;;;;;;4956796;28;20036;-74
2022/05/24 03:45:07;;;;;;;9.80;4.53;;;21.00;59.70;;;;;;4956797;29;20469;-74
2022/05/24 03:47:33;;;;;;;10.68;4.30;;;21.00;59.90;;;;;;4956499;28;20456;-73
2022/05/24 03:49:59;;;;;;;9.82;4.88;;;21.00;59.80;;;;;;4956252;28;20082;-73
2022/05/24 03:52:25;;;;;;;8.55;4.30;;;21.00;59.70;;;;;;4956518;28;20031;-75
2022/05/24 03:54:51;;;;;;;7.50;3.97;;;21.00;60.00;;;;;;4956206;29;20027;-75
2022/05/24 04:00:00;;;;;;;9.75;3.95;;;21.00;59.70;;;;;;4956090;29;20034;-73
2022/05/24 04:02:26;;;;;;;13.65;4.30;;;21.00;59.70;;;;;;4956139;28;20042;-72
2022/05/24 04:04:52;;;;;;;12.68;4.30;;;21.10;59.60;;;;;;4956234;29;20094;-75
2022/05/24 04:07:18;;;;;;;9.65;4.13;;;21.10;59.50;;;;;;4956414;29;20428;-74
2022/05/24 04:09:44;;;;;;;10.50;5.05;;;21.10;59.40;;;;;;4956263;28;20038;-73
2022/05/24 04:12:10;;;;;;;14.38;4.53;;;21.20;59.40;;;;;;4956046;29;20497;-73
2022/05/24 04:14:36;;;;;;;14.20;5.32;;;21.20;59.30;;;;;;4956178;28;20046;-75
2022/05/24 04:17:02;;;;;;;11.40;4.10;;;21.30;59.40;;;;;;4956029;28;20069;-74
2022/05/24 04:19:28;;;;;;;12.00;4.43;;;21.40;59.20;;;;;;4955900;29;20149;-73
2022/05/24 04:21:55;;;;;;;9.82;3.60;;;21.40;59.20;;;;;;4956027;29;20497;-73
2022/05/24 04:24:20;;;;;;;10.30;4.25;;;21.40;59.10;;;;;;4955600;28;20031;-74
2022/05/24 04:26:47;;;;;;;11.57;4.15;;;21.30;59.30;;;;;;4955744;28;20350;-73
2022/05/24 04:29:13;;;;;;;13.75;4.60;;;21.30;59.30;;;;;;4955716;28;20027;-75
2022/05/24 04:31:39;;;;;;;10.73;4.43;;;21.30;59.30;;;;;;4955641;29;20062;-78
2022/05/24 04:34:05;;;;;;;17.88;5.43;;;21.30;59.30;;;;;;4955675;29;20106;-71
2022/05/24 04:36:33;;;;;;;11.00;4.80;;;21.30;59.30;;;;;;4955549;28;20037;-73
2022/05/24 04:38:59;;;;;;;11.98;4.28;;;21.40;59.10;;;;;;4955386;28;20024;-73
2022/05/24 04:44:10;;;;;;;13.25;4.60;;;21.50;58.70;;;;;;4955873;28;20046;-74
2022/05/24 04:49:22;;;;;;;9.73;3.95;;;21.70;58.40;;;;;;4954718;28;20053;-74
2022/05/24 04:51:51;;;;;;;12.07;4.85;;;21.80;58.20;;;;;;4953788;29;20106;-73
2022/05/24 04:54:17;;;;;;;9.40;3.80;;;21.90;57.40;;;;;;4955199;28;20460;-74
2022/05/24 04:56:43;;;;;;;13.77;4.78;;;22.10;56.90;;;;;;4955169;29;20107;-74
2022/05/24 04:59:08;;;;;;;12.57;5.22;;;22.10;56.40;;;;;;4955110;29;20469;-74
2022/05/24 05:01:34;;;;;;;19.08;4.90;;;22.20;56.60;;;;;;4955228;29;20090;-73
2022/05/24 05:04:00;;;;;;;10.48;4.53;;;22.20;56.20;;;;;;4955580;29;20035;-73
2022/05/24 05:06:26;;;;;;;12.05;4.53;;;22.20;55.60;;;;;;4954996;28;20019;-74
2022/05/24 05:08:51;;;;;;;15.07;5.47;;;22.30;55.70;;;;;;4954924;29;20054;-75
2022/05/24 05:11:17;;;;;;;11.57;4.80;;;22.40;55.60;;;;;;4955041;28;20023;-70
2022/05/24 05:13:43;;;;;;;10.70;5.28;;;22.50;55.50;;;;;;4955363;29;20027;-72
2022/05/24 05:16:09;;;;;;;12.02;4.60;;;22.80;55.10;;;;;;4955139;29;20046;-73
2022/05/24 05:18:34;;;;;;;11.57;4.80;;;23.00;54.90;;;;;;4955213;29;20437;-73
2022/05/24 05:21:00;;;;;;;12.90;4.88;;;23.30;54.60;;;;;;4955135;29;20030;-75
2022/05/24 05:23:26;;;;;;;20.08;4.90;;;23.60;53.80;;;;;;4954848;29;20063;-75
2022/05/24 05:25:52;;;;;;;19.95;4.97;;;23.90;53.40;;;;;;4955038;28;20039;-74
2022/05/24 05:28:19;;;;;;;34.40;5.68;;;24.20;52.60;;;;;;4955192;28;20066;-75
2022/05/24 05:33:29;;;;;;;21.80;6.05;;;24.70;51.40;;;;;;4955141;28;20348;-74
2022/05/24 05:35:55;;;;;;;18.27;5.43;;;24.90;51.10;;;;;;4955040;28;20427;-75
2022/05/24 05:38:21;;;;;;;12.38;4.93;;;25.00;50.60;;;;;;4955036;28;20031;-73
2022/05/24 05:40:50;;;;;;;17.45;5.18;;;25.40;50.40;;;;;;4954888;28;20384;-73
2022/05/24 05:43:16;;;;;;;19.17;4.70;;;25.70;49.00;;;;;;4954750;28;20465;-72
2022/05/24 05:45:42;;;;;;;12.85;4.70;;;25.90;48.10;;;;;;4955075;28;20034;-75
2022/05/24 05:48:08;;;;;;;14.02;4.82;;;26.20;47.60;;;;;;4954713;29;20441;-74
2022/05/24 05:50:33;;;;;;;15.52;4.95;;;26.50;47.10;;;;;;4954647;29;20531;-74
2022/05/24 05:53:03;;;;;;;10.00;4.70;;;26.70;46.90;;;;;;4954490;29;20074;-74
2022/05/24 05:55:30;;;;;;;16.83;4.20;;;27.00;46.80;;;;;;4954730;29;20461;-75
2022/05/24 05:57:55;;;;;;;20.75;5.45;;;27.10;46.70;;;;;;4954689;28;20066;-75
2022/05/24 06:00:21;;;;;;;14.38;4.63;;;27.40;46.10;;;;;;4955481;28;20140;-74
2022/05/24 06:02:47;;;;;;;13.63;4.80;;;27.60;45.60;;;;;;4958772;29;20027;-73
2022/05/24 06:05:13;;;;;;;16.95;4.82;;;27.80;45.60;;;;;;4959560;29;20023;-69
2022/05/24 06:07:38;;;;;;;17.27;4.93;;;27.90;45.50;;;;;;4957522;29;20060;-72
2022/05/24 06:10:08;;;;;;;15.82;4.88;;;28.20;45.60;;;;;;4958476;28;20024;-74
2022/05/24 06:12:33;;;;;;;12.63;3.85;;;28.30;44.80;;;;;;4958716;28;20142;-74
2022/05/24 06:14:59;;;;;;;13.00;4.30;;;28.60;44.90;;;;;;4958238;28;20079;-72
2022/05/24 06:17:25;;;;;;;15.48;4.30;;;28.60;44.40;;;;;;4958659;29;20027;-74
2022/05/24 06:19:51;;;;;;;14.85;4.40;;;28.70;44.10;;;;;;4958275;28;20031;-75
2022/05/24 06:22:17;;;;;;;15.95;3.75;;;28.80;43.60;;;;;;4958781;28;20073;-74
2022/05/24 06:24:46;;;;;;;12.77;4.50;;;28.90;43.00;;;;;;4958774;29;20375;-74
2022/05/24 06:27:11;;;;;;;9.02;3.45;;;29.00;42.90;;;;;;4958468;28;20036;-72
2022/05/24 06:29:37;;;;;;;10.85;3.78;;;29.10;42.20;;;;;;4958220;28;20129;-74
2022/05/24 06:32:04;;;;;;;13.73;3.40;;;29.30;43.20;;;;;;4959226;28;20090;-74
2022/05/24 06:34:30;;;;;;;20.52;4.30;;;29.50;42.00;;;;;;4960636;28;20397;-70
2022/05/24 06:36:57;;;;;;;16.67;4.40;;;29.70;41.70;;;;;;4960119;28;20023;-73
2022/05/24 06:39:23;;;;;;;17.83;4.32;;;29.80;41.10;;;;;;4960251;28;20035;-69
2022/05/24 06:41:48;;;;;;;13.80;4.35;;;29.90;40.70;;;;;;4957267;29;20023;-69
2022/05/24 06:44:14;;;;;;;13.23;3.53;;;29.90;40.10;;;;;;4958099;29;20035;-70
2022/05/24 06:46:40;;;;;;;14.85;3.50;;;30.00;39.00;;;;;;4957967;28;20031;-73
2022/05/24 06:49:07;;;;;;;26.42;8.80;;;30.10;38.60;;;;;;4957636;28;20027;-73
2022/05/24 06:51:33;;;;;;;26.58;9.40;;;30.20;38.70;;;;;;4957376;28;20051;-71
2022/05/24 06:53:59;;;;;;;13.95;4.50;;;30.40;39.60;;;;;;4957261;29;20027;-68
2022/05/24 06:56:24;;;;;;;14.20;4.22;;;30.40;38.10;;;;;;4957472;28;20028;-70
2022/05/24 07:02:24;;;;;;;16.35;3.60;;;30.50;36.30;;;;;;4956996;28;20027;-73
2022/05/24 07:04:20;;;;;;;19.80;4.63;;;30.60;35.80;;;;;;4956876;28;20089;-69
2022/05/24 07:06:46;;;;;;;15.88;4.43;;;30.60;34.60;;;;;;4957131;29;20031;-70
2022/05/24 07:09:11;;;;;;;9.25;3.53;;;30.60;34.20;;;;;;4956895;28;20488;-67
2022/05/24 07:11:37;;;;;;;14.48;4.65;;;30.50;33.40;;;;;;4956244;28;20385;-70
2022/05/24 07:14:03;;;;;;;14.70;4.03;;;30.50;33.60;;;;;;4957101;28;20035;-67
2022/05/24 07:16:29;;;;;;;8.93;2.58;;;30.50;33.60;;;;;;4957374;28;20031;-71
2022/05/24 07:18:54;;;;;;;19.70;5.18;;;30.50;33.00;;;;;;4957183;29;20027;-72
2022/05/24 07:21:20;;;;;;;15.10;3.15;;;30.60;32.70;;;;;;4956954;29;20481;-73
2022/05/24 07:23:46;;;;;;;8.05;2.97;;;30.50;32.30;;;;;;4956601;28;20393;-69
2022/05/24 07:26:18;;;;;;;16.77;3.40;;;30.60;32.50;;;;;;4956796;29;20368;-72
2022/05/24 07:28:44;;;;;;;11.20;2.65;;;30.60;32.10;;;;;;4956717;28;20035;-70
2022/05/24 07:31:10;;;;;;;9.50;3.28;;;30.70;31.90;;;;;;4956376;29;20508;-68
2022/05/24 07:33:36;;;;;;;13.10;4.30;;;30.70;32.20;;;;;;4956620;28;20396;-70
2022/05/24 07:36:04;;;;;;;15.93;5.20;;;30.70;32.50;;;;;;4956602;28;20034;-71
2022/05/24 07:38:30;;;;;;;14.45;4.00;;;30.80;33.20;;;;;;4956569;28;20086;-69
2022/05/24 07:46:25;;;;;;;12.82;3.10;;;30.70;31.90;;;;;;4956955;29;20334;-66
2022/05/24 07:48:51;;;;;;;12.48;2.58;;;30.60;31.40;;;;;;4956402;29;20031;-70
2022/05/24 07:51:16;;;;;;;14.90;3.65;;;30.60;30.70;;;;;;4955970;28;20055;-70
2022/05/24 07:53:42;;;;;;;12.50;5.47;;;30.60;31.70;;;;;;4956173;28;20080;-70
2022/05/24 07:56:08;;;;;;;10.65;2.72;;;30.50;31.60;;;;;;4955909;29;20059;-68
2022/05/24 07:58:34;;;;;;;15.07;3.38;;;30.50;31.20;;;;;;4956079;28;20059;-71
2022/05/24 08:01:01;;;;;;;11.32;3.50;;;30.40;30.80;;;;;;4956114;28;20058;-70
2022/05/24 08:03:27;;;;;;;12.35;2.30;;;30.40;31.40;;;;;;4956066;28;20472;-69
2022/05/24 08:05:53;;;;;;;13.18;3.30;;;30.30;30.10;;;;;;4956035;28;20115;-73
2022/05/24 08:08:19;;;;;;;11.45;5.22;;;30.20;30.60;;;;;;4955978;28;20031;-76
2022/05/24 08:10:45;;;;;;;15.70;2.75;;;30.10;33.20;;;;;;4956007;28;20034;-73
2022/05/24 08:13:15;;;;;;;19.13;2.97;;;30.10;31.90;;;;;;4955996;28;20497;-73
2022/05/24 08:15:41;;;;;;;7.60;2.97;;;30.10;31.80;;;;;;4955779;28;20101;-72
2022/05/24 08:18:08;;;;;;;6.72;2.90;;;30.10;32.00;;;;;;4955877;29;20101;-74
2022/05/24 08:20:34;;;;;;;13.73;3.72;;;30.10;32.10;;;;;;4955719;28;20542;-72
2022/05/24 08:23:00;;;;;;;10.40;2.80;;;30.10;32.40;;;;;;4955491;28;20031;-74
2022/05/24 08:25:28;;;;;;;13.60;5.40;;;30.10;31.70;;;;;;4954822;28;20050;-71
2022/05/24 08:27:54;;;;;;;11.30;3.55;;;30.00;31.70;;;;;;4955935;28;20123;-74
2022/05/24 08:30:20;;;;;;;10.60;2.40;;;29.90;32.00;;;;;;4955533;28;20090;-71
2022/05/24 08:32:47;;;;;;;8.93;3.47;;;29.90;31.40;;;;;;4955655;28;20035;-74
2022/05/24 08:35:16;;;;;;;11.27;2.50;;;29.80;31.20;;;;;;4955900;28;20023;-68
2022/05/24 08:37:42;;;;;;;9.75;3.30;;;29.70;31.20;;;;;;4956296;28;20019;-74
2022/05/24 08:40:10;;;;;;;11.85;3.78;;;29.70;32.30;;;;;;4955315;28;20062;-67
2022/05/24 08:43:05;;;;;;;7.28;2.28;;;29.60;32.70;;;;;;4955318;28;20051;-70
2022/05/24 08:48:44;;;;;;;7.07;2.72;;;29.60;31.90;;;;;;4955540;29;20400;-74
2022/05/24 08:51:23;;;;;;;8.18;3.10;;;29.60;31.40;;;;;;4950967;29;20515;-72
2022/05/24 08:53:52;;;;;;;13.93;3.70;;;29.50;32.40;;;;;;4955050;28;20118;-70
2022/05/24 08:56:58;;;;;;;9.20;2.72;;;29.50;32.00;;;;;;4955236;28;20185;-68
2022/05/24 08:59:35;;;;;;;11.55;2.72;;;29.50;32.10;;;;;;4954505;28;20043;-69
2022/05/24 09:02:02;;;;;;;9.65;2.50;;;29.60;32.60;;;;;;4955465;28;20110;-67
2022/05/24 09:04:30;;;;;;;6.85;2.22;;;29.50;32.10;;;;;;4953615;28;20032;-69
2022/05/24 09:07:31;;;;;;;9.70;2.80;;;29.60;31.70;;;;;;4954912;28;20055;-71
2022/05/24 09:10:23;;;;;;;12.98;2.60;;;29.60;32.70;;;;;;4953834;29;20046;-73
2022/05/24 09:13:07;;;;;;;9.27;2.83;;;29.60;31.40;;;;;;4954779;29;20126;-70
2022/05/24 09:15:39;;;;;;;8.25;2.65;;;29.60;31.80;;;;;;4953452;29;20031;-69
2022/05/24 09:18:11;;;;;;;17.42;3.00;;;29.60;30.70;;;;;;4954795;29;20032;-67
2022/05/24 09:20:42;;;;;;;21.85;3.08;;;29.60;31.30;;;;;;4954830;29;20031;-68
2022/05/24 09:23:15;;;;;;;8.88;2.17;;;29.60;31.60;;;;;;4954677;28;20053;-70
2022/05/24 09:26:01;;;;;;;10.50;2.95;;;29.60;30.90;;;;;;4954674;28;20038;-70
2022/05/24 09:28:53;;;;;;;10.48;2.67;;;29.60;30.80;;;;;;4954799;28;20059;-71
2022/05/24 09:31:24;;;;;;;14.18;2.63;;;29.50;30.70;;;;;;4954925;29;20413;-69
2022/05/24 09:33:59;;;;;;;13.75;2.65;;;29.60;29.40;;;;;;4954697;29;20117;-75
2022/05/24 09:36:33;;;;;;;9.52;2.88;;;29.60;29.80;;;;;;4954164;28;20033;-69
2022/05/24 09:38:59;;;;;;;;;;;29.60;31.10;;;;;;4955030;28;20035;-68
2022/05/24 09:41:26;;;;;;;9.32;2.70;;;29.60;28.50;;;;;;4955007;28;19906;-71
2022/05/24 09:44:13;;;;;;;9.30;2.17;;;29.60;30.20;;;;;;4954679;28;20015;-72
2022/05/24 09:46:42;;;;;;;17.90;2.70;;;29.60;29.90;;;;;;4954728;28;20110;-67
2022/05/24 09:49:31;;;;;;;10.98;2.42;;;29.60;30.00;;;;;;4954794;28;20027;-68
2022/05/24 09:52:14;;;;;;;13.35;2.47;;;29.60;29.90;;;;;;4954229;28;20059;-75
2022/05/24 09:54:56;;;;;;;9.15;2.63;;;29.60;30.40;;;;;;4954547;28;20543;-73
2022/05/24 09:57:28;;;;;;;9.75;2.72;;;29.60;30.60;;;;;;4953256;29;20031;-68
2022/05/24 10:00:05;;;;;;;11.20;2.70;;;29.60;31.00;;;;;;4954286;28;20023;-68
2022/05/24 10:02:34;;;;;;;13.25;2.45;;;29.70;30.40;;;;;;4954743;28;20032;-70
2022/05/24 10:05:02;;;;;;;11.63;2.50;;;29.70;30.10;;;;;;4952958;29;20392;-68
2022/05/24 10:07:30;;;;;;;9.80;2.55;;;29.70;30.70;;;;;;4954351;28;20551;-68
2022/05/24 10:10:16;;;;;;;14.38;2.40;;;29.70;30.70;;;;;;4954228;28;20024;-69
2022/05/24 10:13:03;;;;;;;13.50;2.47;;;29.70;30.00;;;;;;4954788;28;20031;-68
2022/05/24 10:15:38;;;;;;;8.95;2.35;;;29.80;30.00;;;;;;4954212;29;20035;-68
2022/05/24 10:18:18;;;;;;;12.25;2.55;;;29.80;31.00;;;;;;4954181;29;20031;-70
2022/05/24 10:21:02;;;;;;;14.00;2.45;;;29.80;30.40;;;;;;4954009;29;20035;-67
2022/05/24 10:23:43;;;;;;;11.25;2.40;;;29.80;29.50;;;;;;4952904;28;20126;-70
2022/05/24 10:26:20;;;;;;;9.18;2.70;;;29.90;30.00;;;;;;4954290;28;20035;-69
2022/05/24 10:29:09;;;;;;;11.40;3.03;;;29.90;31.00;;;;;;4954140;29;20028;-75
2022/05/24 10:31:55;;;;;;;9.60;2.33;;;29.90;32.10;;;;;;4954034;28;20024;-71
2022/05/24 10:40:53;;;;;;;12.05;2.78;;;30.00;30.90;;;;;;4953065;28;20188;-68
2022/05/24 10:43:40;;;;;;;12.98;2.33;;;30.00;30.00;;;;;;4952826;29;20039;-70
2022/05/24 10:46:16;;;;;;;10.25;2.30;;;30.00;30.10;;;;;;4954350;28;20034;-69
2022/05/24 10:49:09;;;;;;;13.55;2.63;;;30.00;29.60;;;;;;4956830;28;20023;-67
2022/05/24 10:51:53;;;;;;;10.05;2.20;;;30.00;29.10;;;;;;4957177;28;20071;-68
2022/05/24 10:54:42;;;;;;;8.23;2.15;;;30.00;29.40;;;;;;4957038;28;20027;-71
2022/05/24 10:57:10;;;;;;;11.23;2.47;;;30.00;29.10;;;;;;4957270;29;20027;-68
2022/05/24 10:59:58;;;;;;;6.45;1.92;;;30.00;29.50;;;;;;4955848;29;20495;-71
2022/05/24 11:02:57;;;;;;;17.60;2.67;;;30.00;29.90;;;;;;4957421;28;20086;-72
2022/05/24 11:05:37;;;;;;;7.90;1.90;;;30.10;29.90;;;;;;4946254;28;20485;-71
2022/05/24 11:08:28;;;;;;;11.07;2.70;;;30.10;29.40;;;;;;4957433;29;20050;-71
2022/05/24 11:10:57;;;;;;;10.60;3.47;;;30.10;29.00;;;;;;4957127;29;20034;-69
2022/05/24 11:13:37;;;;;;;8.15;2.10;;;30.20;29.90;;;;;;4957307;28;20127;-69
2022/05/24 11:16:07;;;;;;;12.63;2.38;;;30.20;30.90;;;;;;4957083;28;20034;-69
2022/05/24 11:18:33;;;;;;;15.05;2.50;;;30.20;29.90;;;;;;4957177;28;20029;-71
2022/05/24 11:21:16;;;;;;;12.30;2.65;;;30.20;29.20;;;;;;4956881;28;20019;-69
2022/05/24 11:23:54;;;;;;;11.45;3.00;;;30.30;29.00;;;;;;4955661;28;20023;-69
2022/05/24 11:26:25;;;;;;;8.00;2.22;;;30.40;29.50;;;;;;4955956;28;20027;-70
2022/05/24 11:28:56;;;;;;;11.73;2.58;;;30.30;29.40;;;;;;4957228;28;20070;-69
2022/05/24 11:31:33;;;;;;;10.35;2.40;;;30.30;29.00;;;;;;4957214;28;20381;-74
2022/05/24 11:34:01;;;;;;;12.85;2.28;;;30.30;29.70;;;;;;4957111;29;20041;-75
2022/05/24 11:36:30;;;;;;;10.93;2.95;;;30.30;30.00;;;;;;4956825;29;20078;-68
2022/05/24 11:38:56;;;;;;;14.10;2.17;;;30.40;28.30;;;;;;4956795;29;20035;-68
2022/05/24 11:41:31;;;;;;;11.32;2.50;;;30.40;28.30;;;;;;4956940;28;20123;-69
2022/05/24 11:44:05;;;;;;;13.73;2.17;;;30.40;28.10;;;;;;4956602;28;20039;-69
2022/05/24 11:46:33;;;;;;;;;;;30.40;28.20;;;;;;4957022;28;20030;-69
2022/05/24 11:49:18;;;;;;;13.20;2.60;;;30.40;27.70;;;;;;4956829;28;19907;-69
2022/05/24 11:51:53;;;;;;;14.13;3.20;;;30.40;28.30;;;;;;4956221;28;20062;-70
2022/05/24 11:54:21;;;;;;;13.38;2.30;;;30.40;28.40;;;;;;4955081;28;20134;-67
2022/05/24 11:56:55;;;;;;;11.50;2.58;;;30.40;28.40;;;;;;4956464;28;20038;-68
2022/05/24 11:59:38;;;;;;;;;;;30.40;29.30;;;;;;4956554;28;20062;-69
2022/05/24 12:02:19;;;;;;;13.02;4.45;;;30.40;29.00;;;;;;4956378;28;19913;-68
2022/05/24 12:08:01;;;;;;;13.35;2.50;;;30.50;29.70;;;;;;4955961;29;20403;-68
2022/05/24 12:10:44;;;;;;;10.65;2.30;;;30.50;30.00;;;;;;4956434;28;20035;-69
2022/05/24 12:13:30;;;;;;;12.02;2.60;;;30.60;30.20;;;;;;4956219;28;20040;-70
2022/05/24 12:16:00;;;;;;;16.73;3.15;;;30.60;30.50;;;;;;4954907;29;20020;-70
2022/05/24 12:18:53;;;;;;;13.75;2.78;;;30.60;30.40;;;;;;4956404;28;20032;-69
2022/05/24 12:21:43;;;;;;;15.57;3.93;;;30.60;29.20;;;;;;4955911;28;20113;-68
2022/05/24 12:24:35;;;;;;;12.38;2.50;;;30.60;30.10;;;;;;4955823;28;20028;-71
2022/05/24 12:27:21;;;;;;;8.45;2.30;;;30.60;29.90;;;;;;4939603;29;20444;-71
2022/05/24 12:30:10;;;;;;;7.40;2.60;;;30.50;29.60;;;;;;4955547;28;20485;-68
2022/05/24 12:32:39;;;;;;;11.00;2.83;;;30.50;29.70;;;;;;4956161;29;20420;-74
2022/05/24 12:35:09;;;;;;;11.50;2.60;;;30.50;30.10;;;;;;4955919;28;20115;-72
2022/05/24 12:37:36;;;;;;;9.25;3.00;;;30.60;30.20;;;;;;4955980;28;20046;-75
2022/05/24 12:40:19;;;;;;;8.85;2.67;;;30.70;30.30;;;;;;4955431;28;20034;-73
2022/05/24 12:42:48;;;;;;;10.75;2.40;;;30.70;30.00;;;;;;4956090;28;20200;-69
2022/05/24 12:45:20;;;;;;;9.68;2.38;;;30.80;30.50;;;;;;4955515;29;20027;-68
2022/05/24 12:47:51;;;;;;;16.20;5.25;;;30.70;29.90;;;;;;4954148;28;20027;-70
2022/05/24 12:50:36;;;;;;;7.55;2.83;;;30.80;30.40;;;;;;4955236;28;20043;-74
2022/05/24 12:53:09;;;;;;;9.63;2.63;;;30.80;29.90;;;;;;4955257;28;20043;-69
2022/05/24 12:55:55;;;;;;;10.07;2.60;;;30.80;30.00;;;;;;4955512;28;20046;-69
2022/05/24 12:58:35;;;;;;;7.32;2.20;;;30.80;30.00;;;;;;4954117;29;20032;-78
2022/05/24 13:01:14;;;;;;;16.75;3.22;;;30.80;30.40;;;;;;4955192;28;20068;-71
2022/05/24 13:03:46;;;;;;;14.95;3.17;;;30.80;30.60;;;;;;4955116;29;20103;-69
2022/05/24 13:06:27;;;;;;;8.63;2.85;;;30.80;30.80;;;;;;4953869;28;20433;-68
2022/05/24 13:09:18;;;;;;;7.68;2.25;;;30.80;30.90;;;;;;4955153;28;20023;-74
2022/05/24 13:11:47;;;;;;;9.05;2.80;;;30.90;32.10;;;;;;4954888;29;20064;-75
2022/05/24 13:14:43;;;;;;;13.50;2.60;;;30.80;31.80;;;;;;4954994;28;20038;-70
2022/05/24 13:17:13;;;;;;;9.13;2.50;;;30.90;32.50;;;;;;4955028;28;20078;-70
2022/05/24 13:19:57;;;;;;;15.70;2.60;;;30.80;32.80;;;;;;4954770;28;20086;-70
2022/05/24 13:22:37;;;;;;;9.07;2.42;;;30.90;34.00;;;;;;4955276;29;20019;-70
2022/05/24 13:25:04;;;;;;;14.68;2.72;;;30.90;33.50;;;;;;4954826;28;20046;-68
2022/05/24 13:28:00;;;;;;;12.27;2.60;;;30.90;33.80;;;;;;4954597;28;20051;-69
2022/05/24 13:33:33;;;;;;;12.05;2.95;;;30.90;35.30;;;;;;4954595;28;20121;-70
2022/05/24 13:36:20;;;;;;;10.65;2.67;;;30.90;35.80;;;;;;4953528;29;20031;-69
2022/05/24 13:39:12;;;;;;;10.70;2.50;;;30.90;35.20;;;;;;4954311;29;20054;-73
2022/05/24 13:41:42;;;;;;;7.22;2.35;;;30.90;35.50;;;;;;4954244;28;20098;-69
2022/05/24 13:44:19;;;;;;;9.50;2.55;;;31.00;35.90;;;;;;4954580;28;20028;-72
2022/05/24 13:47:06;;;;;;;9.52;2.60;;;31.00;35.90;;;;;;4954577;29;20019;-72
2022/05/24 13:49:44;;;;;;;9.20;2.83;;;31.00;36.50;;;;;;4954837;28;20041;-70
2022/05/24 13:52:22;;;;;;;13.65;3.30;;;31.00;35.40;;;;;;4954379;28;20126;-70